M I D A S
Marine Information and Data Acquisition System
Tripno 1762 of the Zeeleeuw from 2009-07-10 07:18:04 to 2009-07-10 14:34:13
Back to CruiseResearch ActivitiesStationsMapUnderway DataData graphs

EquipmentUnitsComment
TimeDGPSUTC
LatitudeDGPSDM.mWGS84
LongitudeDGPSDM.mWGS84
TemperatureSBE03/SBE38deg celciusITS90
ConductivitySBE21S/mITS90
SalinitySBE21 Practical Salinity Units
ChlorophylAChelsea fluorimeterg/lCalibrated in Aceton
Missing or incorrect values are displayed as -999
Sea surface data collected by the RV Zeeleeuw from 2009-07-10 06:19:00 to 2009-07-10 14:42:13
Time Latitude Longitude Temperature Conductivity Salinity ChlorophylA
2009-07-10 06:20:05 51°13.661 2°55.962 22.3781 4.75605 34.491022 15.192617
2009-07-10 06:21:05 51°13.661 2°55.962 22.3707 4.756154 34.493128 15.157793
2009-07-10 06:22:05 51°13.661 2°55.962 22.3753 4.755634 34.489534 15.122969
2009-07-10 06:23:05 51°13.661 2°55.962 22.379 4.755634 34.492689 15.088145
2009-07-10 06:24:05 51°13.662 2°55.962 22.385 4.755323 34.489523 15.053321
2009-07-10 06:25:05 51°13.662 2°55.961 22.3766 4.755219 34.491833 15.018497
2009-07-10 06:26:05 51°13.663 2°55.961 22.3743 4.754803 34.491607 14.983672
2009-07-10 06:27:05 51°13.663 2°55.961 22.3863 4.754492 34.487179 14.948848
2009-07-10 06:28:05 51°13.662 2°55.961 22.3862 4.75418 34.484012 14.914024
2009-07-10 06:29:05 51°13.662 2°55.961 22.3893 4.754284 34.486119 14.8792
2009-07-10 06:30:05 51°13.662 2°55.96 22.3853 4.754076 34.485691 14.844376
2009-07-10 06:31:05 51°13.662 2°55.96 22.3852 4.753972 34.488001 14.809552
2009-07-10 06:32:05 51°13.662 2°55.96 22.3838 4.753868 34.485894 14.774728
2009-07-10 06:33:05 51°13.662 2°55.96 22.3882 4.753661 34.486727 14.739904
2009-07-10 06:34:05 51°13.662 2°55.959 22.3915 4.753453 34.485037 14.70508
2009-07-10 06:35:05 51°13.663 2°55.96 22.3911 4.753557 34.487144 14.670256
2009-07-10 06:36:05 51°13.663 2°55.96 22.386 4.753349 34.484823 14.600608
2009-07-10 06:37:05 51°13.663 2°55.96 22.386 4.753349 34.487347 14.565784
2009-07-10 06:38:05 51°13.663 2°55.959 22.3869 4.753245 34.488395 14.53096
2009-07-10 06:39:05 51°13.663 2°55.959 22.3931 4.75283 34.485014 14.496136
2009-07-10 06:40:05 51°13.662 2°55.959 22.3928 4.752622 34.483323 14.461312
2009-07-10 06:41:05 51°13.662 2°55.959 22.4063 4.75283 34.484383 14.426488
2009-07-10 06:42:05 51°13.662 2°55.959 22.399 4.752934 34.484597 14.391664
2009-07-10 06:43:05 51°13.662 2°55.959 22.3967 4.752726 34.484169 14.356839
2009-07-10 06:44:06 51°13.663 2°55.959 22.3994 4.752518 34.48374 14.322015
2009-07-10 06:45:06 51°13.662 2°55.957 22.3967 4.752518 34.488159 14.252367
2009-07-10 06:46:06 51°13.662 2°55.958 22.4025 4.751999 34.486457 14.217543
2009-07-10 06:47:06 51°13.663 2°55.958 22.3973 4.751687 34.485814 14.182719
2009-07-10 06:48:06 51°13.663 2°55.959 22.3995 4.751376 34.483909 14.147895
2009-07-10 06:49:06 51°13.663 2°55.959 22.4024 4.750856 34.479681 14.113071
2009-07-10 06:50:06 51°13.663 2°55.959 22.4061 4.750856 34.482207 14.043423
2009-07-10 06:51:06 51°13.663 2°55.958 22.3979 4.750856 34.482838 14.043423
2009-07-10 06:52:06 51°13.663 2°55.958 22.4018 4.750649 34.483041 13.973775
2009-07-10 06:53:06 51°13.663 2°55.959 22.4032 4.750233 34.479658 13.938951
2009-07-10 06:54:06 51°13.664 2°55.959 22.4144 4.750129 34.479444 13.904127
2009-07-10 06:55:06 51°13.664 2°55.96 22.4149 4.749921 34.477753 13.869303
2009-07-10 06:56:06 51°13.663 2°55.96 22.4193 4.749922 34.481541 13.799655
2009-07-10 06:57:06 51°13.665 2°55.96 22.4244 4.74961 34.480899 13.799655
2009-07-10 06:58:06 51°13.665 2°55.96 22.4274 4.749402 34.481102 13.730007
2009-07-10 06:59:06 51°13.665 2°55.959 22.4322 4.749195 34.480042 13.695182
2009-07-10 07:00:05 51°13.664 2°55.959 22.4352 4.749195 34.481305 13.660358
2009-07-10 07:01:05 51°13.664 2°55.959 22.4361 4.748987 34.48214 13.625534
2009-07-10 07:02:05 51°13.664 2°55.959 22.4207 4.748675 34.480234 13.555886
2009-07-10 07:03:05 51°13.663 2°55.959 22.4346 4.748467 34.479174 13.555886
2009-07-10 07:04:05 51°13.663 2°55.959 22.4422 4.748364 34.479591 13.486238
2009-07-10 07:05:05 51°13.663 2°55.96 22.4564 4.748052 34.478317 13.451414
2009-07-10 07:06:05 51°13.662 2°55.96 22.4509 4.748052 34.478949 13.41659
2009-07-10 07:07:05 51°13.662 2°55.96 22.4628 4.74774 34.478306 13.346942
2009-07-10 07:08:04 51°13.663 2°55.959 22.4712 4.74774 34.480201 13.346942
2009-07-10 07:09:04 51°13.663 2°55.959 22.4667 4.747325 34.476817 13.277294
2009-07-10 07:10:03 51°13.663 2°55.959 22.4666 4.747325 34.476817 13.24247
2009-07-10 07:11:04 51°13.662 2°55.96 22.4903 4.747221 34.478498 13.207646
2009-07-10 07:12:05 51°13.662 2°55.961 22.4837 4.746909 34.474696 13.172822
2009-07-10 07:13:04 51°13.662 2°55.96 22.4996 4.747013 34.478702 13.137998
2009-07-10 07:14:03 51°13.663 2°55.959 22.4975 4.746806 34.475745 13.103174
2009-07-10 07:15:02 51°13.662 2°55.96 22.5085 4.746702 34.475531 13.06835
2009-07-10 07:16:02 51°13.662 2°55.961 22.5007 4.746702 34.475531 13.033525
2009-07-10 07:17:01 51°13.662 2°55.96 22.5166 4.747117 34.482708 12.963877
2009-07-10 07:18:01 51°13.663 2°55.959 22.5167 4.746494 34.478262 12.929053
2009-07-10 07:19:01 51°13.662 2°55.96 22.5113 4.746494 34.480159 12.859405
2009-07-10 07:20:01 51°13.662 2°55.96 22.5228 4.745767 34.475498 12.824581
2009-07-10 07:21:02 51°13.662 2°55.96 22.53 4.745767 34.47613 12.789757
2009-07-10 07:22:01 51°13.662 2°55.96 22.5367 4.745559 34.474438 12.754933
2009-07-10 07:23:02 51°13.662 2°55.96 22.5377 4.745144 34.475477 12.685285
2009-07-10 07:24:01 51°13.662 2°55.959 22.5422 4.744832 34.472938 12.650461
2009-07-10 07:25:01 51°13.663 2°55.959 22.5406 4.745144 34.478638 12.580813
2009-07-10 07:26:01 51°13.663 2°55.959 22.5435 4.744625 34.47567 12.545989
2009-07-10 07:27:01 51°13.662 2°55.96 22.5652 4.744417 34.469552 12.511165
2009-07-10 07:28:02 51°13.662 2°55.96 22.5707 4.744728 34.471459 12.441517
2009-07-10 07:29:01 51°13.662 2°55.96 22.5739 4.744624 34.474405 12.406692
2009-07-10 07:30:02 51°13.662 2°55.959 22.5802 4.744521 34.474191 12.371868
2009-07-10 07:31:01 51°13.662 2°55.955 22.5741 4.744625 34.47567 12.30222
2009-07-10 07:32:05 51°13.681 2°55.881 22.5821 4.744105 34.473966 12.267396
2009-07-10 07:33:05 51°13.699 2°55.789 22.6036 4.744313 34.475659 12.197748
2009-07-10 07:34:05 51°13.706 2°55.763 22.5827 4.744313 34.474395 12.162924
2009-07-10 07:35:05 51°13.695 2°55.744 22.6357 4.744105 34.478393 12.162924
2009-07-10 07:36:05 51°13.704 2°55.754 22.6303 4.74369 34.476903 12.058452
2009-07-10 07:37:03 51°13.768 2°55.692 22.5808 4.744001 34.47312 12.093276
2009-07-10 07:38:01 51°13.874 2°55.599 22.6074 4.744313 34.487045 12.058452
2009-07-10 07:39:02 51°13.997 2°55.505 22.6087 4.743794 34.48028 11.988804
2009-07-10 07:40:01 51°14.12 2°55.416 22.6276 4.743482 34.473945 12.023628
2009-07-10 07:41:02 51°14.234 2°55.295 22.6361 4.744001 34.480076 11.988804
2009-07-10 07:42:01 51°14.337 2°55.125 22.6 4.744417 34.482831 12.058452
2009-07-10 07:43:01 51°14.421 2°54.895 22.5587 4.743274 34.449504 19.85904
2009-07-10 07:44:01 51°14.385 2°54.614 22.576 4.743068 34.559974 16.655227
2009-07-10 07:45:01 51°14.299 2°54.331 22.5741 4.742133 34.558693 17.769597
2009-07-10 07:46:01 51°14.211 2°54.045 22.5574 4.741509 34.479998 19.998336
2009-07-10 07:47:02 51°14.124 2°53.754 22.568 4.740679 34.546807 21.426122
2009-07-10 07:48:02 51°14.038 2°53.472 22.5863 4.739954 34.636522 22.43602
2009-07-10 07:49:01 51°13.952 2°53.191 22.6153 4.740161 34.624797 19.963512
2009-07-10 07:50:02 51°13.863 2°52.901 22.6332 4.738084 34.644233 20.451049
2009-07-10 07:51:01 51°13.779 2°52.617 22.6128 4.736006 34.583097 22.122603
2009-07-10 07:52:01 51°13.693 2°52.331 22.6189 4.736422 34.578842 20.207281
2009-07-10 07:53:02 51°13.604 2°52.037 22.6545 4.735488 34.638302 17.525828
2009-07-10 07:54:02 51°13.534 2°51.74 22.6408 4.733514 34.598439 20.207281
2009-07-10 07:55:02 51°13.513 2°51.548 22.6582 4.732788 34.637286 20.346577
2009-07-10 07:56:02 51°13.474 2°51.465 22.6657 4.729775 34.604876 20.416225
2009-07-10 07:57:01 51°13.437 2°51.411 22.6695 4.728425 34.589316 20.799289
2009-07-10 07:58:01 51°13.392 2°51.356 22.6872 4.727698 34.617293 20.799289
2009-07-10 07:59:01 51°13.327 2°51.321 22.7003 4.727906 34.611948 20.311753
2009-07-10 08:00:02 51°13.263 2°51.266 22.7076 4.726036 34.592114 20.520697
2009-07-10 08:01:01 51°13.219 2°51.201 22.7139 4.726555 34.605346 20.381401
2009-07-10 08:02:02 51°13.174 2°51.141 22.7161 4.726244 34.598303 20.276929
2009-07-10 08:03:01 51°13.128 2°51.09 22.7453 4.726867 34.618163 20.555521
2009-07-10 08:04:02 51°13.08 2°51.041 22.7396 4.724582 34.59747 20.451049
2009-07-10 08:05:01 51°13.029 2°50.996 22.7642 4.724686 34.597042 20.207281
2009-07-10 08:06:02 51°12.978 2°50.947 22.7751 4.723855 34.584452 20.729641
2009-07-10 08:07:01 51°12.927 2°50.903 22.7798 4.725309 34.590628 20.729641
2009-07-10 08:08:02 51°12.876 2°50.852 22.7781 4.723751 34.577196 20.346577
2009-07-10 08:09:02 51°12.829 2°50.801 22.7813 4.722297 34.583829 20.555521
2009-07-10 08:10:02 51°12.786 2°50.742 22.8059 4.722297 34.571019 20.381401
2009-07-10 08:11:02 51°12.744 2°50.681 22.8078 4.72292 34.556939 20.311753
2009-07-10 08:12:01 51°12.704 2°50.618 22.821 4.724166 34.577406 20.555521
2009-07-10 08:13:01 51°12.667 2°50.55 22.8407 4.72157 34.575295 20.276929
2009-07-10 08:14:02 51°12.629 2°50.483 22.8458 4.721674 34.582554 20.242105
2009-07-10 08:15:02 51°12.592 2°50.417 22.8547 4.720012 34.577233 19.963512
2009-07-10 08:16:01 51°12.557 2°50.351 22.869 4.721051 34.602442 19.789392
2009-07-10 08:17:02 51°12.524 2°50.277 22.8604 4.719701 34.594551 20.03316
2009-07-10 08:18:02 51°12.493 2°50.207 22.893 4.72074 34.624926 19.789392
2009-07-10 08:19:02 51°12.465 2°50.132 22.9031 4.720323 34.534993 19.85904
2009-07-10 08:20:02 51°12.439 2°50.056 22.9148 4.719493 34.601187 20.102808
2009-07-10 08:21:01 51°12.413 2°49.983 22.9256 4.71887 34.58772 20.207281
2009-07-10 08:22:01 51°12.389 2°49.904 22.9173 4.719493 34.583222 20.207281
2009-07-10 08:23:01 51°12.373 2°49.817 22.9344 4.716169 34.578991 20.137632
2009-07-10 08:24:02 51°12.359 2°49.726 22.9377 4.716481 34.604029 20.137632
2009-07-10 08:25:02 51°12.346 2°49.637 22.9495 4.716897 34.592673 20.311753
2009-07-10 08:26:01 51°12.329 2°49.551 22.9697 4.71617 34.592472 20.381401
2009-07-10 08:27:02 51°12.299 2°49.468 22.972 4.714923 34.574517 20.485873
2009-07-10 08:28:02 51°12.254 2°49.4 22.9904 4.716689 34.598671 20.694817
2009-07-10 08:29:02 51°12.201 2°49.338 23.0056 4.715339 34.58371 20.729641
2009-07-10 08:30:01 51°12.153 2°49.27 22.996 4.714923 34.591852 20.625169
2009-07-10 08:31:02 51°12.108 2°49.2 22.9982 4.714092 34.561269 20.659993
2009-07-10 08:32:01 51°12.065 2°49.128 23.0107 4.713366 34.602811 20.764465
2009-07-10 08:33:01 51°12.025 2°49.058 23.0251 4.7143 34.597647 20.903762
2009-07-10 08:34:02 51°11.994 2°49.001 23.039 4.714923 34.578367 20.834113
2009-07-10 08:35:01 51°11.97 2°48.934 23.0534 4.714924 34.600206 20.97341
2009-07-10 08:36:02 51°11.945 2°48.854 23.0539 4.712846 34.597893 21.008234
2009-07-10 08:37:01 51°11.927 2°48.767 23.0551 4.714612 34.595713 26.197018
2009-07-10 08:38:02 51°11.946 2°48.707 23.0891 4.713054 34.611826 26.057722
2009-07-10 08:39:02 51°11.977 2°48.709 23.0823 4.713054 34.600889 25.18712
2009-07-10 08:40:02 51°11.998 2°48.712 23.1049 4.711808 34.581629 24.455815
2009-07-10 08:41:02 51°12.031 2°48.724 23.1146 4.71295 34.596819 25.883601
2009-07-10 08:42:02 51°12.108 2°48.822 23.0964 4.713678 34.616959 25.570185
2009-07-10 08:43:02 51°12.208 2°48.997 23.1091 4.713054 34.610539 25.709481
2009-07-10 08:44:01 51°12.308 2°49.195 23.1335 4.711496 34.586133 22.122603
2009-07-10 08:45:02 51°12.412 2°49.399 23.1312 4.711392 34.578852 20.903762
2009-07-10 08:46:01 51°12.515 2°49.592 23.1506 4.713989 34.591227 21.704715
2009-07-10 08:47:01 51°12.617 2°49.794 23.1571 4.712431 34.571342 22.018131
2009-07-10 08:48:02 51°12.714 2°50.006 23.1835 4.713885 34.594228 18.918791
2009-07-10 08:49:02 51°12.802 2°50.222 23.1811 4.711289 34.598571 18.57055
2009-07-10 08:50:02 51°12.89 2°50.44 23.1921 4.709937 34.541213 19.267031
2009-07-10 08:51:02 51°12.986 2°50.648 23.1994 4.707965 34.573771 21.077882
2009-07-10 08:52:02 51°13.084 2°50.854 23.1991 4.705472 34.562241 18.918791
2009-07-10 08:53:01 51°13.192 2°51.042 23.2028 4.705888 34.568235 18.048189
2009-07-10 08:54:02 51°13.31 2°51.23 23.2171 4.705265 34.564388 22.78426
2009-07-10 08:55:02 51°13.378 2°51.337 23.2223 4.702669 34.582249 22.714612
2009-07-10 08:56:02 51°13.39 2°51.341 23.2407 4.701837 34.566382 22.749436
2009-07-10 08:57:02 51°13.385 2°51.333 23.2432 4.701007 34.582719 22.644964
2009-07-10 08:58:02 51°13.372 2°51.322 23.1921 4.719598 34.676043 22.575316
2009-07-10 08:59:02 51°13.356 2°51.312 23.2963 0.110542 0.612901 22.540492
2009-07-10 09:00:01 51°13.336 2°51.303 23.3126 0.094281 0.520573 22.575316
2009-07-10 09:01:02 51°13.314 2°51.289 23.3254 0.085739 0.471946 22.540492
2009-07-10 09:02:02 51°13.291 2°51.274 23.2928 0.079976 0.439229 22.575316
2009-07-10 09:03:02 51°13.269 2°51.259 23.2363 0.075756 0.415349 22.61014
2009-07-10 09:04:02 51°13.248 2°51.246 23.0305 0.072463 0.39676 22.679788
2009-07-10 09:05:02 51°13.239 2°51.251 23.0561 0.069787 0.381766 22.61014
2009-07-10 09:06:02 51°13.215 2°51.299 23.0078 0.067626 0.369664 22.575316
2009-07-10 09:07:01 51°13.133 2°51.269 22.9807 0.065568 0.358143 22.540492
2009-07-10 09:08:02 51°13.015 2°51.092 22.9645 0.063819 0.348361 22.401196
2009-07-10 09:09:02 51°12.904 2°50.846 22.8963 0.062378 0.340314 22.540492
2009-07-10 09:10:02 51°12.788 2°50.575 22.9135 0.06104 0.332869 22.505668
2009-07-10 09:11:02 51°12.675 2°50.298 22.8825 0.059805 0.325996 22.679788
2009-07-10 09:12:02 51°12.56 2°50.022 22.9133 0.058776 0.320338 22.61014
2009-07-10 09:13:01 51°12.483 2°49.725 22.9536 0.057747 0.314676 22.679788
2009-07-10 09:14:01 51°12.421 2°49.414 22.9493 0.056821 0.309614 22.61014
2009-07-10 09:15:02 51°12.343 2°49.108 22.9189 0.055997 0.305128 22.61014
2009-07-10 09:16:02 51°12.258 2°48.813 22.9648 0.055174 0.300631 22.749436
2009-07-10 09:17:02 51°12.175 2°48.515 22.9768 0.054454 0.296763 22.575316
2009-07-10 09:18:02 51°12.093 2°48.214 22.9525 0.053733 0.292867 22.644964
2009-07-10 09:19:02 51°12.009 2°47.915 23.0545 0.053013 0.288965 22.679788
2009-07-10 09:20:02 51°11.928 2°47.612 23.0672 0.052499 0.286204 22.714612
2009-07-10 09:21:02 51°11.847 2°47.312 23.1121 0.051881 0.282906 22.78426
2009-07-10 09:22:02 51°11.759 2°47.02 23.1176 0.051367 0.280118 22.888733
2009-07-10 09:23:02 51°11.673 2°46.731 23.1354 0.050852 0.277402 22.853909
2009-07-10 09:24:02 51°11.585 2°46.434 23.1421 0.050337 0.274632 22.714612
2009-07-10 09:25:02 51°11.499 2°46.14 23.1956 0.049926 0.272432 22.749436
2009-07-10 09:26:02 51°11.413 2°45.844 23.188 0.049411 0.269698 22.853909
2009-07-10 09:27:02 51°11.326 2°45.549 23.2517 0.049 0.267482 22.993205
2009-07-10 09:28:02 51°11.242 2°45.257 23.2368 0.048588 0.265308 22.888733
2009-07-10 09:29:01 51°11.173 2°44.999 23.2733 0.048279 0.263684 22.923557
2009-07-10 09:30:02 51°11.094 2°44.91 23.3553 0.047868 0.261512 22.888733
2009-07-10 09:31:02 51°11.032 2°44.866 23.3689 0.047559 0.259905 22.923557
2009-07-10 09:32:02 51°10.978 2°44.812 23.4047 0.04725 0.258256 22.923557
2009-07-10 09:33:01 51°10.936 2°44.747 23.4312 0.046839 0.256005 22.958381
2009-07-10 09:34:01 51°10.896 2°44.672 23.4723 0.04653 0.254315 23.062853
2009-07-10 09:35:02 51°10.855 2°44.595 23.4882 0.046324 0.253227 22.958381
2009-07-10 09:36:02 51°10.816 2°44.528 23.5445 0.046015 0.251564 23.028029
2009-07-10 09:37:01 51°10.779 2°44.459 23.5667 0.045707 0.249896 23.028029
2009-07-10 09:38:02 51°10.745 2°44.382 23.5695 0.045398 0.248228 23.062853
2009-07-10 09:39:02 51°10.715 2°44.299 23.6572 0.045192 0.247139 22.958381
2009-07-10 09:40:02 51°10.692 2°44.209 23.7018 0.044986 0.246067 22.993205
2009-07-10 09:41:02 51°10.683 2°44.112 23.679 0.044678 0.244406 23.097677
2009-07-10 09:42:02 51°10.678 2°44.012 23.6949 0.044472 0.243316 23.097677
2009-07-10 09:43:02 51°10.668 2°43.912 23.7339 0.044266 0.242222 23.097677
2009-07-10 09:44:02 51°10.653 2°43.816 23.7398 0.04406 0.24114 23.062853
2009-07-10 09:45:02 51°10.638 2°43.72 23.7748 0.043854 0.240049 23.062853
2009-07-10 09:46:01 51°10.622 2°43.631 23.7984 0.043648 0.238962 23.097677
2009-07-10 09:47:02 51°10.606 2°43.538 23.8528 0.043443 0.237887 23.062853
2009-07-10 09:48:02 51°10.59 2°43.445 23.874 0.043237 0.236804 23.062853
2009-07-10 09:49:02 51°10.575 2°43.349 23.865 0.043031 0.235732 23.062853
2009-07-10 09:50:02 51°10.56 2°43.254 23.8795 0.042928 0.23524 23.097677
2009-07-10 09:51:02 51°10.546 2°43.158 23.9327 0.042722 0.234143 23.097677
2009-07-10 09:52:02 51°10.534 2°43.06 23.9682 0.042516 0.233066 23.097677
2009-07-10 09:53:02 51°10.52 2°42.961 24.0026 0.042311 0.231981 23.202149
2009-07-10 09:54:01 51°10.508 2°42.863 24.0424 0.042208 0.231462 23.132501
2009-07-10 09:55:02 51°10.495 2°42.762 24.0318 0.042002 0.230368 23.167325
2009-07-10 09:56:01 51°10.482 2°42.667 24.0919 0.041899 0.229849 23.167325
2009-07-10 09:57:02 51°10.468 2°42.569 24.1161 0.041693 0.228763 23.167325
2009-07-10 09:58:01 51°10.453 2°42.475 24.1501 0.04159 0.228243 23.167325
2009-07-10 09:59:02 51°10.441 2°42.37 24.1292 0.041385 0.227144 23.167325
2009-07-10 10:00:01 51°10.419 2°42.274 24.151 0.041282 0.226624 23.132501
2009-07-10 10:01:01 51°10.371 2°42.2 24.2076 0.041179 0.226112 23.132501
2009-07-10 10:02:02 51°10.307 2°42.153 24.2164 0.040973 0.225028 23.132501
2009-07-10 10:03:01 51°10.242 2°42.125 24.2507 0.04087 0.224512 23.167325
2009-07-10 10:04:01 51°10.175 2°42.103 24.2916 0.040767 0.223975 23.132501
2009-07-10 10:05:02 51°10.115 2°42.052 24.2948 0.040561 0.222859 23.132501
2009-07-10 10:06:01 51°10.066 2°41.985 24.2962 0.040458 0.222306 23.306621
2009-07-10 10:07:01 51°10.022 2°41.913 24.3467 0.040355 0.221769 23.132501
2009-07-10 10:08:02 51°9.987 2°41.835 24.3643 0.040253 0.221244 23.167325
2009-07-10 10:09:01 51°9.963 2°41.786 24.3915 0.04015 0.220711 23.236973
2009-07-10 10:10:01 51°9.945 2°41.754 24.417 0.039944 0.219613 23.202149
2009-07-10 10:11:02 51°9.928 2°41.738 24.4286 0.039841 0.219076 23.202149
2009-07-10 10:12:01 51°9.909 2°41.726 24.458 0.039738 0.218523 23.202149
2009-07-10 10:13:01 51°9.866 2°41.725 24.4744 0.039635 0.217985 23.271797
2009-07-10 10:14:02 51°9.864 2°41.834 24.498 0.039532 0.217447 23.236973
2009-07-10 10:15:01 51°9.922 2°42.022 24.5128 0.039429 0.216898 23.271797
2009-07-10 10:16:01 51°9.993 2°42.236 24.5381 0.039326 0.216344 23.306621
2009-07-10 10:17:02 51°10.078 2°42.434 24.5578 0.039223 0.215791 23.306621
2009-07-10 10:18:01 51°10.187 2°42.524 24.574 0.039121 0.215242 23.306621
2009-07-10 10:19:01 51°10.221 2°42.54 24.5935 0.039018 0.214688 23.306621
2009-07-10 10:20:02 51°10.228 2°42.552 24.619 0.038915 0.214139 23.341445
2009-07-10 10:21:01 51°10.226 2°42.555 24.6291 0.038915 0.214165 23.271797
2009-07-10 10:22:01 51°10.219 2°42.548 24.6597 0.038812 0.213619 23.306621
2009-07-10 10:23:01 51°10.209 2°42.543 24.6684 0.038709 0.213073 23.306621
2009-07-10 10:24:02 51°10.197 2°42.537 24.6876 0.038606 0.212527 23.306621
2009-07-10 10:25:02 51°10.195 2°42.535 24.7175 0.038503 0.211984 23.341445
2009-07-10 10:26:02 51°10.225 2°42.497 24.7447 0.0384 0.211441 23.341445
2009-07-10 10:27:02 51°10.244 2°42.342 24.7221 0.0384 0.211464 23.306621
2009-07-10 10:28:02 51°10.236 2°42.092 24.7644 0.038297 0.21091 23.306621
2009-07-10 10:29:02 51°10.212 2°41.826 24.7491 0.038194 0.210363 23.341445
2009-07-10 10:30:02 51°10.189 2°41.539 24.7628 0.038091 0.20982 23.341445
2009-07-10 10:31:02 51°10.166 2°41.225 24.7817 0.037989 0.209288 23.445918
2009-07-10 10:32:02 51°10.149 2°40.907 24.8261 0.037989 0.209332 23.271797
2009-07-10 10:33:02 51°10.131 2°40.584 24.8056 0.037886 0.208796 23.376269
2009-07-10 10:34:02 51°10.112 2°40.258 24.8276 0.037783 0.20826 23.376269
2009-07-10 10:35:02 51°10.093 2°39.932 24.8348 0.037783 0.208297 23.411093
2009-07-10 10:36:02 51°10.076 2°39.608 24.8535 0.03768 0.207768 23.480742
2009-07-10 10:37:02 51°10.059 2°39.291 24.8765 0.037577 0.207231 23.480742
2009-07-10 10:38:02 51°10.053 2°38.979 24.8949 0.037474 0.206702 23.480742
2009-07-10 10:39:02 51°10.072 2°38.669 24.9043 0.037474 0.206757 23.480742
2009-07-10 10:40:02 51°10.092 2°38.359 24.9075 0.037371 0.206227 23.445918
2009-07-10 10:41:02 51°10.11 2°38.047 24.9332 0.037268 0.205697 23.480742
2009-07-10 10:42:02 51°10.121 2°37.735 24.9525 0.037268 0.205741 23.445918
2009-07-10 10:43:02 51°10.135 2°37.423 24.963 0.037165 0.205196 23.515566
2009-07-10 10:44:02 51°10.151 2°37.111 24.9863 0.037062 0.204662 23.55039
2009-07-10 10:45:02 51°10.216 2°36.838 25.0146 0.037062 0.204709 23.515566
2009-07-10 10:46:02 51°10.336 2°36.623 25.0243 0.03696 0.20415 23.620038
2009-07-10 10:47:02 51°10.456 2°36.416 25.0289 0.036857 0.203601 23.585214
2009-07-10 10:48:02 51°10.579 2°36.221 25.0396 0.036857 0.203623 23.585214
2009-07-10 10:49:02 51°10.736 2°36.205 25.0553 0.036754 0.203056 23.654862
2009-07-10 10:50:02 51°10.886 2°36.298 25.0704 0.036651 0.202489 23.689686
2009-07-10 10:51:02 51°11.034 2°36.394 25.0795 0.036651 0.2025 23.654862
2009-07-10 10:52:02 51°11.192 2°36.454 25.0914 0.036548 0.201919 23.72451
2009-07-10 10:53:02 51°11.346 2°36.52 25.1148 0.036548 0.201937 23.689686
2009-07-10 10:54:02 51°11.498 2°36.604 25.1235 0.036445 0.201367 23.72451
2009-07-10 10:55:02 51°11.649 2°36.686 25.1352 0.036445 0.201374 23.72451
2009-07-10 10:56:02 51°11.803 2°36.768 25.143 0.036342 0.2008 23.72451
2009-07-10 10:57:02 51°11.956 2°36.851 25.1625 0.036342 0.200814 23.759334
2009-07-10 10:58:02 51°12.112 2°36.933 25.1774 0.036239 0.20024 23.72451
2009-07-10 10:59:02 51°12.266 2°37.016 25.1876 0.036239 0.20024 23.759334
2009-07-10 11:00:01 51°12.415 2°37.098 25.2115 0.036136 0.199667 23.72451
2009-07-10 11:01:02 51°12.572 2°37.184 25.2103 0.036136 0.199677 23.794158
2009-07-10 11:02:02 51°12.727 2°37.266 25.2244 0.036033 0.199096 23.794158
2009-07-10 11:03:02 51°12.887 2°37.305 25.2339 0.036033 0.1991 23.828982
2009-07-10 11:04:02 51°13.053 2°37.289 25.2531 0.03593 0.198523 23.828982
2009-07-10 11:05:02 51°13.22 2°37.272 25.2625 0.03593 0.198526 23.89863
2009-07-10 11:06:02 51°13.386 2°37.243 25.27 0.035828 0.197946 23.863806
2009-07-10 11:07:02 51°13.553 2°37.209 25.284 0.035828 0.197949 23.863806
2009-07-10 11:08:02 51°13.722 2°37.172 25.2976 0.035725 0.197376 23.828982
2009-07-10 11:09:02 51°13.893 2°37.12 25.3096 0.035725 0.197376 23.863806
2009-07-10 11:10:02 51°14.057 2°37.046 25.3296 0.035725 0.197379 23.89863
2009-07-10 11:11:02 51°14.208 2°36.916 25.3329 0.035622 0.196802 23.89863
2009-07-10 11:12:01 51°14.348 2°36.769 25.3432 0.035622 0.196802 23.933454
2009-07-10 11:13:02 51°14.492 2°36.617 25.3561 0.035519 0.196239 23.89863
2009-07-10 11:14:02 51°14.637 2°36.459 25.371 0.035519 0.196243 23.968278
2009-07-10 11:15:02 51°14.775 2°36.287 25.3814 0.035416 0.195676 23.933454
2009-07-10 11:16:02 51°14.896 2°36.086 25.3995 0.035416 0.195683 23.968278
2009-07-10 11:17:02 51°15 2°35.851 25.4011 0.035416 0.195694 23.933454
2009-07-10 11:18:02 51°15.1 2°35.613 25.4178 0.035313 0.195127 23.968278
2009-07-10 11:19:02 51°15.208 2°35.379 25.4246 0.035313 0.195144 24.003102
2009-07-10 11:20:02 51°15.25 2°35.101 25.437 0.03521 0.194581 24.003102
2009-07-10 11:21:02 51°15.303 2°34.814 25.4474 0.03521 0.194595 24.037926
2009-07-10 11:22:02 51°15.398 2°34.563 25.4569 0.03521 0.194619 24.037926
2009-07-10 11:23:02 51°15.496 2°34.311 25.4645 0.035107 0.194066 24.07275
2009-07-10 11:24:02 51°15.591 2°34.062 25.4764 0.035107 0.194087 24.037926
2009-07-10 11:25:02 51°15.687 2°33.819 25.4904 0.035004 0.193523 24.07275
2009-07-10 11:26:02 51°15.789 2°33.587 25.5001 0.035004 0.193537 24.107575
2009-07-10 11:27:02 51°15.89 2°33.369 25.5188 0.035004 0.193554 24.037926
2009-07-10 11:28:02 51°15.991 2°33.162 25.5216 0.034901 0.192987 24.107575
2009-07-10 11:29:02 51°16.093 2°32.957 25.5399 0.034901 0.192994 24.177223
2009-07-10 11:30:02 51°16.173 2°32.724 25.5438 0.034798 0.192427 24.212047
2009-07-10 11:31:02 51°16.152 2°32.433 25.5458 0.034798 0.192438 24.142399
2009-07-10 11:32:02 51°16.111 2°32.139 25.5598 0.034798 0.192448 24.142399
2009-07-10 11:33:02 51°16.069 2°31.849 25.5656 0.034696 0.191891 24.212047
2009-07-10 11:34:02 51°16.027 2°31.556 25.5728 0.034696 0.191922 24.212047
2009-07-10 11:35:02 51°15.985 2°31.264 25.5842 0.034696 0.191952 24.281695
2009-07-10 11:36:02 51°15.946 2°30.963 25.5893 0.034593 0.191409 24.212047
2009-07-10 11:37:02 51°15.916 2°30.655 25.598 0.034593 0.191449 24.212047
2009-07-10 11:38:02 51°15.887 2°30.346 25.6027 0.034593 0.191486 24.316519
2009-07-10 11:39:02 51°15.855 2°30.036 25.6135 0.03449 0.190946 24.281695
2009-07-10 11:40:02 51°15.821 2°29.728 25.6237 0.03449 0.190986 24.316519
2009-07-10 11:41:02 51°15.798 2°29.418 25.631 0.034387 0.190456 24.281695
2009-07-10 11:42:02 51°15.789 2°29.112 25.6683 0.034387 0.190479 24.316519
2009-07-10 11:43:02 51°15.779 2°28.806 25.6481 0.034387 0.19053 24.351343
2009-07-10 11:44:02 51°15.767 2°28.498 25.6726 0.034284 0.189982 24.351343
2009-07-10 11:45:02 51°15.755 2°28.189 25.6751 0.034284 0.190019 24.351343
2009-07-10 11:46:02 51°15.743 2°27.88 25.6711 0.034181 0.189474 24.351343
2009-07-10 11:47:02 51°15.726 2°27.569 25.6734 0.034181 0.189501 24.420991
2009-07-10 11:48:02 51°15.712 2°27.259 25.6811 0.034181 0.189538 24.455815
2009-07-10 11:49:02 51°15.7 2°26.952 25.6875 0.034078 0.189 24.455815
2009-07-10 11:50:02 51°15.696 2°26.653 25.7026 0.034078 0.18902 24.560287
2009-07-10 11:51:02 51°15.744 2°26.382 25.7244 0.034078 0.189053 24.455815
2009-07-10 11:52:02 51°15.825 2°26.132 25.7155 0.033975 0.188505 24.629935
2009-07-10 11:53:02 51°15.922 2°25.908 25.7426 0.033975 0.188521 24.560287
2009-07-10 11:54:02 51°16.027 2°25.699 25.7408 0.033872 0.187976 24.595111
2009-07-10 11:55:02 51°16.151 2°25.521 25.761 0.033872 0.187986 24.490639
2009-07-10 11:56:02 51°16.31 2°25.459 25.7639 0.033872 0.187993 24.629935
2009-07-10 11:57:02 51°16.462 2°25.58 25.7487 0.033769 0.187441 24.560287
2009-07-10 11:58:02 51°16.565 2°25.662 25.7554 0.033769 0.187474 24.595111
2009-07-10 11:59:02 51°16.593 2°25.596 25.7808 0.033769 0.187487 24.525463
2009-07-10 12:00:02 51°16.548 2°25.57 25.7723 0.033667 0.186918 24.629935
2009-07-10 12:01:02 51°16.488 2°25.607 25.7711 0.033667 0.186935 24.595111
2009-07-10 12:02:02 51°16.43 2°25.614 25.7766 0.033667 0.186931 24.595111
2009-07-10 12:03:02 51°16.38 2°25.599 25.7737 0.033564 0.186353 24.664759
2009-07-10 12:04:02 51°16.331 2°25.581 25.7803 0.033564 0.186356 24.664759
2009-07-10 12:05:02 51°16.281 2°25.565 25.7824 0.033564 0.186353 24.699583
2009-07-10 12:06:02 51°16.23 2°25.545 25.7846 0.033461 0.185774 24.699583
2009-07-10 12:07:02 51°16.185 2°25.509 25.788 0.033461 0.185771 24.734408
2009-07-10 12:08:02 51°16.149 2°25.451 25.8018 0.033461 0.185777 24.769232
2009-07-10 12:09:02 51°16.114 2°25.383 25.8015 0.033461 0.185784 24.734408
2009-07-10 12:10:02 51°16.074 2°25.319 25.8094 0.033358 0.185212 24.804056
2009-07-10 12:11:02 51°16.037 2°25.256 25.8164 0.033358 0.185222 24.769232
2009-07-10 12:12:02 51°16 2°25.192 25.8209 0.033358 0.185238 24.734408
2009-07-10 12:13:02 51°15.96 2°25.133 25.8287 0.033255 0.184669 24.769232
2009-07-10 12:14:02 51°15.906 2°25.098 25.8303 0.033255 0.184682 24.804056
2009-07-10 12:15:02 51°15.841 2°25.098 25.8245 0.033255 0.184689 24.804056
2009-07-10 12:16:02 51°15.774 2°25.105 25.8326 0.033255 0.184699 24.804056
2009-07-10 12:17:02 51°15.716 2°25.086 25.8343 0.033152 0.18412 24.83888
2009-07-10 12:18:02 51°15.661 2°25.055 25.8548 0.033152 0.184113 24.769232
2009-07-10 12:19:02 51°15.612 2°25.013 25.8381 0.033152 0.184117 24.83888
2009-07-10 12:20:02 51°15.557 2°24.989 25.8381 0.033049 0.183545 24.83888
2009-07-10 12:21:02 51°15.492 2°24.985 25.851 0.033049 0.183541 24.908528
2009-07-10 12:22:02 51°15.427 2°24.986 25.8551 0.033049 0.183545 24.873704
2009-07-10 12:23:02 51°15.363 2°24.991 25.8559 0.033049 0.183541 24.908528
2009-07-10 12:24:02 51°15.298 2°24.995 25.8548 0.032946 0.18296 24.943352
2009-07-10 12:25:02 51°15.235 2°24.987 25.856 0.032946 0.182956 24.943352
2009-07-10 12:26:02 51°15.185 2°24.951 25.8788 0.032946 0.182953 24.908528
2009-07-10 12:27:02 51°15.144 2°24.901 25.8844 0.032946 0.182947 24.83888
2009-07-10 12:28:02 51°15.105 2°24.844 25.8604 0.032843 0.182362 24.978176
2009-07-10 12:29:02 51°15.069 2°24.788 25.8693 0.032843 0.182365 24.943352
2009-07-10 12:30:02 51°15.037 2°24.729 25.8796 0.032843 0.182365 24.978176
2009-07-10 12:31:02 51°15.013 2°24.669 25.8724 0.032843 0.182365 25.013
2009-07-10 12:32:02 51°15.001 2°24.602 25.892 0.032843 0.182372 24.978176
2009-07-10 12:33:02 51°15.007 2°24.536 25.8833 0.03274 0.181797 25.047824
2009-07-10 12:34:02 51°15.035 2°24.481 25.8857 0.03274 0.181797 25.047824
2009-07-10 12:35:01 51°15.1 2°24.456 25.9007 0.03274 0.181803 25.047824
2009-07-10 12:36:02 51°15.186 2°24.503 25.8903 0.03274 0.1818 25.047824
2009-07-10 12:37:02 51°15.227 2°24.568 25.8755 0.032637 0.181228 25.047824
2009-07-10 12:38:02 51°15.25 2°24.633 25.8771 0.032637 0.181228 25.047824
2009-07-10 12:39:02 51°15.297 2°24.698 25.8427 0.032637 0.181222 25.082648
2009-07-10 12:40:02 51°15.421 2°24.767 25.8884 0.032637 0.181209 25.082648
2009-07-10 12:41:02 51°15.586 2°24.88 25.8835 0.032637 0.181196 25.117472
2009-07-10 12:42:02 51°15.762 2°25.014 25.8933 0.032535 0.180602 25.152296
2009-07-10 12:43:02 51°15.928 2°25.155 25.8904 0.032535 0.180577 25.18712
2009-07-10 12:44:02 51°16.105 2°25.257 25.8862 0.032535 0.180551 25.117472
2009-07-10 12:45:02 51°16.213 2°25.382 25.8852 0.032535 0.180513 25.152296
2009-07-10 12:46:01 51°16.239 2°25.46 25.8842 0.032535 0.180481 25.152296
2009-07-10 12:47:02 51°16.244 2°25.515 25.8922 0.032535 0.180456 25.117472
2009-07-10 12:48:02 51°16.246 2°25.565 25.8972 0.032432 0.17986 25.18712
2009-07-10 12:49:02 51°16.244 2°25.618 25.8841 0.032432 0.179844 25.152296
2009-07-10 12:50:02 51°16.243 2°25.677 25.8891 0.032432 0.179828 25.152296
2009-07-10 12:51:02 51°16.219 2°25.743 25.8865 0.032432 0.179809 25.18712
2009-07-10 12:52:02 51°16.179 2°25.738 25.8881 0.032432 0.17979 25.152296
2009-07-10 12:53:02 51°16.184 2°25.685 25.8966 0.032432 0.179784 25.221944
2009-07-10 12:54:02 51°16.222 2°25.679 25.9066 0.032329 0.179197 25.221944
2009-07-10 12:55:02 51°16.246 2°25.713 25.9 0.032329 0.179194 25.256768
2009-07-10 12:56:02 51°16.262 2°25.758 25.9037 0.032329 0.179191 25.256768
2009-07-10 12:57:02 51°16.269 2°25.805 25.8973 0.032329 0.179191 25.221944
2009-07-10 12:58:02 51°16.271 2°25.859 25.8969 0.032329 0.179188 25.256768
2009-07-10 12:59:02 51°16.271 2°25.913 25.8871 0.032329 0.179191 25.256768
2009-07-10 13:00:02 51°16.269 2°25.968 25.8906 0.032226 0.178608 25.291592
2009-07-10 13:01:02 51°16.271 2°26.021 25.8972 0.032226 0.178608 25.326416
2009-07-10 13:02:02 51°16.301 2°26.04 25.8877 0.032226 0.178611 25.326416
2009-07-10 13:03:02 51°16.284 2°26.016 25.917 0.032226 0.178621 25.326416
2009-07-10 13:04:02 51°16.208 2°26.071 25.8995 0.032226 0.178621 25.326416
2009-07-10 13:05:02 51°16.081 2°26.157 25.9046 0.032123 0.178044 25.326416
2009-07-10 13:06:02 51°16 2°26.437 25.9221 0.032123 0.178041 25.36124
2009-07-10 13:07:02 51°15.98 2°26.769 25.9083 0.032123 0.178038 25.396065
2009-07-10 13:08:02 51°15.965 2°27.102 25.8913 0.032123 0.178028 25.396065
2009-07-10 13:09:02 51°15.968 2°27.434 25.9008 0.032123 0.178013 25.36124
2009-07-10 13:10:02 51°15.973 2°27.759 25.8838 0.032123 0.177994 25.36124
2009-07-10 13:11:02 51°15.97 2°28.081 25.8915 0.03202 0.17739 25.465713
2009-07-10 13:12:02 51°15.963 2°28.399 25.8892 0.03202 0.177371 25.465713
2009-07-10 13:13:02 51°15.958 2°28.714 25.8841 0.03202 0.177349 25.396065
2009-07-10 13:14:02 51°15.951 2°29.03 25.8951 0.03202 0.177324 25.430889
2009-07-10 13:15:02 51°15.95 2°29.352 25.8891 0.03202 0.177299 25.396065
2009-07-10 13:16:02 51°15.945 2°29.675 25.8712 0.03202 0.177275 25.465713
2009-07-10 13:17:02 51°15.942 2°30.004 25.8965 0.03202 0.177247 25.465713
2009-07-10 13:18:02 51°15.939 2°30.33 25.8767 0.03202 0.177225 25.500537
2009-07-10 13:19:02 51°15.937 2°30.658 25.8539 0.031917 0.176615 25.465713
2009-07-10 13:20:02 51°15.933 2°30.987 25.8274 0.031917 0.176587 25.500537
2009-07-10 13:21:02 51°15.93 2°31.313 22.0965 0.031917 0.176789 25.535361
2009-07-10 13:22:02 51°15.927 2°31.641 23.2389 0.031917 0.176739 25.500537
2009-07-10 13:23:02 51°15.922 2°31.97 24.171 0.031917 0.176671 25.535361
2009-07-10 13:24:02 51°15.919 2°32.305 24.2491 0.031917 0.176618 25.570185
2009-07-10 13:25:02 51°15.917 2°32.64 24.237 0.031917 0.176563 23.759334
2009-07-10 13:26:02 51°15.91 2°32.977 24.4145 0.031917 0.176519 23.863806
2009-07-10 13:27:02 51°15.903 2°33.316 23.8572 0.031917 0.176513 23.968278
2009-07-10 13:28:02 51°15.9 2°33.648 23.7434 0.031917 0.176461 23.89863
2009-07-10 13:29:02 51°15.875 2°33.982 24.013 0.031814 0.17584 23.689686
2009-07-10 13:30:02 51°15.843 2°34.309 23.9525 0.031814 0.1758 23.863806
2009-07-10 13:31:02 51°15.815 2°34.637 24.2003 0.031814 0.175754 23.89863
2009-07-10 13:32:02 51°15.798 2°34.956 23.8616 0.031814 0.175711 23.933454
2009-07-10 13:33:02 51°15.781 2°35.276 23.9534 0.031814 0.175671 23.759334
2009-07-10 13:34:02 51°15.764 2°35.601 24.0678 0.031814 0.175634 24.037926
2009-07-10 13:35:02 51°15.745 2°35.928 24.3422 0.031814 0.175594 23.933454
2009-07-10 13:36:02 51°15.73 2°36.259 24.1378 0.031814 0.175554 24.003102
2009-07-10 13:37:02 51°15.714 2°36.594 24.3191 0.031814 0.175518 23.794158
2009-07-10 13:38:02 51°15.688 2°36.921 24.1036 0.031814 0.175469 23.933454
2009-07-10 13:39:02 51°15.642 2°37.241 24.0745 0.031814 0.175432 24.037926
2009-07-10 13:40:02 51°15.587 2°37.559 24.3724 0.031814 0.175383 23.863806
2009-07-10 13:41:02 51°15.532 2°37.879 24.3109 0.031814 0.175344 24.003102
2009-07-10 13:42:02 51°15.481 2°38.204 24.3791 0.031814 0.175325 24.003102
2009-07-10 13:43:02 51°15.432 2°38.532 24.2546 0.031711 0.174695 23.689686
2009-07-10 13:44:02 51°15.386 2°38.853 24.346 0.031711 0.174658 23.759334
2009-07-10 13:45:02 51°15.334 2°39.173 24.4602 0.031711 0.174613 23.863806
2009-07-10 13:46:02 51°15.29 2°39.494 24.4433 0.031711 0.174564 23.654862
2009-07-10 13:47:02 51°15.253 2°39.816 24.4514 0.031711 0.174522 23.654862
2009-07-10 13:48:02 51°15.224 2°40.141 24.4115 0.031711 0.174489 23.654862
2009-07-10 13:49:02 51°15.193 2°40.463 24.4854 0.031711 0.174446 23.72451
2009-07-10 13:50:02 51°15.155 2°40.787 24.488 0.031711 0.174413 23.863806
2009-07-10 13:51:02 51°15.12 2°41.114 24.4418 0.031711 0.174374 23.515566
2009-07-10 13:52:02 51°15.088 2°41.437 24.5011 0.031711 0.17434 23.620038
2009-07-10 13:53:02 51°15.051 2°41.764 24.5157 0.031711 0.174313 23.72451
2009-07-10 13:54:02 51°15.014 2°42.092 24.5435 0.031711 0.174286 23.794158
2009-07-10 13:55:02 51°14.988 2°42.424 24.4875 0.031711 0.174256 23.55039
2009-07-10 13:56:02 51°14.966 2°42.758 24.4669 0.031711 0.174232 23.794158
2009-07-10 13:57:02 51°14.946 2°43.093 24.5338 0.031711 0.174202 23.654862
2009-07-10 13:58:02 51°14.949 2°43.431 24.5062 0.031711 0.174165 23.654862
2009-07-10 13:59:02 51°14.959 2°43.773 24.5272 0.031608 0.173544 23.72451
2009-07-10 14:00:02 51°14.962 2°44.117 24.5733 0.031608 0.173493 23.72451
2009-07-10 14:01:02 51°14.961 2°44.464 24.5887 0.031608 0.173436 23.794158
2009-07-10 14:02:02 51°14.959 2°44.802 24.5988 0.031608 0.173391 23.620038
2009-07-10 14:03:02 51°14.956 2°45.126 24.6073 0.031608 0.173334 23.72451
2009-07-10 14:04:02 51°14.954 2°45.449 24.5961 0.031608 0.17328 23.72451
2009-07-10 14:05:02 51°14.951 2°45.774 24.6467 0.031608 0.173226 23.759334
2009-07-10 14:06:02 51°14.949 2°46.1 24.6015 0.031608 0.173188 23.828982
2009-07-10 14:07:02 51°14.953 2°46.425 24.6299 0.031608 0.173155 23.863806
2009-07-10 14:08:02 51°14.958 2°46.748 24.6521 0.031608 0.17311 23.828982
2009-07-10 14:09:02 51°14.967 2°47.069 24.6191 0.031608 0.173077 23.828982
2009-07-10 14:10:02 51°14.966 2°47.388 24.6733 0.031608 0.173047 23.968278
2009-07-10 14:11:02 51°14.967 2°47.71 24.6387 0.031608 0.173018 23.863806
2009-07-10 14:12:02 51°14.969 2°48.033 24.6838 0.031608 0.172982 23.72451
2009-07-10 14:13:02 51°14.975 2°48.362 24.6753 0.031608 0.172952 23.89863
2009-07-10 14:14:01 51°14.98 2°48.698 24.7038 0.031608 0.172925 23.863806
2009-07-10 14:15:02 51°14.984 2°49.048 24.7211 0.031608 0.172902 24.037926
2009-07-10 14:16:02 51°14.994 2°49.395 24.6573 0.031505 0.172307 23.933454
2009-07-10 14:17:02 51°15.002 2°49.743 24.7117 0.031505 0.172275 24.003102
2009-07-10 14:18:02 51°15.01 2°50.093 24.731 0.031505 0.172251 23.968278
2009-07-10 14:19:02 51°15.018 2°50.441 24.7194 0.031505 0.172224 23.933454
2009-07-10 14:20:02 51°15.026 2°50.786 24.7101 0.031505 0.172198 24.037926
2009-07-10 14:21:02 51°15.032 2°51.133 24.7618 0.031505 0.172171 23.968278
2009-07-10 14:22:02 51°15.032 2°51.478 24.7535 0.031505 0.172136 24.07275
2009-07-10 14:23:02 51°15 2°51.81 24.7654 0.031505 0.172118 24.07275
2009-07-10 14:24:02 51°14.955 2°52.134 24.7651 0.031505 0.172091 24.003102
2009-07-10 14:25:01 51°14.898 2°52.446 24.7839 0.031505 0.172056 24.07275
2009-07-10 14:26:02 51°14.842 2°52.764 24.7359 0.031505 0.172035 23.968278
2009-07-10 14:27:02 51°14.798 2°53.083 24.7657 0.031505 0.172003 24.037926
2009-07-10 14:28:02 51°14.757 2°53.405 24.7495 0.031505 0.171964 24.177223
2009-07-10 14:29:02 51°14.712 2°53.721 24.7653 0.031403 0.171377 24.212047
2009-07-10 14:30:03 51°14.676 2°54.055 24.8029 0.031403 0.171357 23.968278
2009-07-10 14:31:02 51°14.613 2°54.36 24.7914 0.031403 0.171322 24.07275
2009-07-10 14:32:02 51°14.526 2°54.655 24.786 0.031403 0.171289 24.177223
2009-07-10 14:33:01 51°14.431 2°54.936 24.8008 0.031403 0.171254 24.177223
2009-07-10 14:34:02 51°14.308 2°55.177 24.8232 0.031403 0.171234 24.07275
2009-07-10 14:35:02 51°14.188 2°55.343 24.8268 0.031403 0.171205 24.107575
2009-07-10 14:36:02 51°14.056 2°55.456 24.8257 0.031403 0.171181 24.142399
2009-07-10 14:37:02 51°13.934 2°55.549 24.8304 0.031403 0.171155 24.177223
2009-07-10 14:38:02 51°13.824 2°55.633 24.8424 0.031403 0.171134 24.177223
2009-07-10 14:39:01 51°13.737 2°55.739 24.8411 0.031403 0.171117 24.177223
2009-07-10 14:40:02 51°13.691 2°55.844 24.8466 0.031403 0.171093 24.177223
2009-07-10 14:41:02 51°13.668 2°55.929 24.8604 0.0313 0.170505 24.177223
2009-07-10 14:42:01 51°13.662 2°55.958 24.8614 0.0313 0.170476 24.212047